Time;durP1;ratioP1;P1;durP2;ratioP2;P2;SDS_P1;SDS_P2;PMS_P1;PMS_P2;Temp;Humidity;BMP_temperature;BMP_pressure;BME280_temperature;BME280_humidity;BME280_pressure;Samples;Min_cycle;Max_cycle;Signal;HPM_P1;HPM_P2
2021/10/24 19:00:32;;;;;;;;;;;;;;;;;;5070640;27;62854;-71
2021/10/24 19:02:58;;;;;;;;;;;;;;;;;;5048933;28;19927;-72
2021/10/24 19:05:24;;;;;;;;;;;;;;;;;;5049861;28;19917;-72
2021/10/24 19:07:28;;;;;;;;;;;;;;;;;;1918847;28;6808;-71
2021/10/24 19:08:27;;;;;;;;;;;;;;;;;;1909353;28;12281;-73
2021/10/24 19:09:24;;;;;;;;;;;;;;;;;;1888001;28;7360;-72
2021/10/24 19:10:20;;;;;;;;;;;;;;;;;;1888765;28;7228;-70
2021/10/24 19:11:19;;;;;;;;;;;;;;;;;;1888862;28;7405;-71
2021/10/24 19:12:17;;;;;;;;;;;;;;;;;;1887855;28;7503;-71
2021/10/24 19:13:16;;;;;;;;;;;;;;;;;;1891344;28;7516;-69
2021/10/24 19:14:14;;;;;;;;;;;;;;;;;;1888047;28;72986;-71
2021/10/24 19:15:11;;;;;;;;;;;;;;;;;;1898593;28;7223;-71
2021/10/24 19:16:08;;;;;;;;;;;;;;;;;;1896294;28;7053;-69
2021/10/24 19:17:05;;;;;;;;;;;;;;;;;;1897919;28;7336;-69
2021/10/24 19:18:34;;;;;;;;;;;;;;;;;;1920478;28;6824;-73
2021/10/24 19:19:31;;;;;;;;;;;;;;;;;;1894152;28;14096;-71
2021/10/24 19:20:28;;;;;;;;;;;;;;;;;;1897443;28;7224;-72
2021/10/24 19:21:28;;;;;;;;;;;;;;;;;;1894995;28;12476;-71
2021/10/24 19:22:25;;;;;;;;;;;;;;;;;;1896656;28;7206;-71
2021/10/24 19:23:26;;;;;;;;;;;;;;;;;;1898095;28;7290;-71
2021/10/24 19:24:23;;;;;;;;;;;;;;;;;;1893527;28;99959;-71
2021/10/24 19:25:45;;;;;;;;;;;;;;;;;;1914780;28;6804;-72
2021/10/24 19:26:43;;;;;;;;;;;;;;;;;;1882598;28;13341;-70
2021/10/24 19:27:41;;;;;;;;;;;;;;;;;;1882110;28;7049;-71
2021/10/24 19:28:38;;;;;;;;;;;;;;;;;;1881235;28;7013;-73
2021/10/24 19:29:35;;;;;;;;;;;;;;;;;;1882036;28;7172;-71
2021/10/24 19:30:32;;;;;;;;;;;;;;;;;;1877141;28;73340;-71
2021/10/24 19:31:29;;;;;;;;;;;;;;;;;;1882558;28;7254;-71
2021/10/24 19:32:28;;;;;;;;;;;;;;;;;;1899043;28;7116;-71
2021/10/24 19:33:26;;;;;;;;;;;;;;;;;;1893904;28;8317;-73
2021/10/24 19:34:23;;;;;;;;;;;;;;;;;;1884458;28;7199;-70
2021/10/24 19:35:20;;;;;;;;;;;;;;;;;;1882515;28;7018;-69
2021/10/24 19:37:16;;;;;;;;;;;;;;;;;;1897377;27;12237;-70
2021/10/24 19:38:13;;;;;;;;;;;;;;;;;;1894166;28;7108;-69
2021/10/24 19:39:11;;;;;;;;;;;;;;;;;;1894491;28;7092;-70
2021/10/24 19:40:09;;;;;;;;;;;;;;;;;;1888895;28;7144;-70
2021/10/24 19:41:06;;;;;;;;;;;;;;;;;;1905804;28;7466;-72
2021/10/24 19:42:04;;;;;;;;;;;;;;;;;;1903617;28;7113;-70
2021/10/24 19:43:00;;;;;;;;;;;;;;;;;;1900218;28;7238;-71
2021/10/24 19:43:57;;;;;;;;;;;;;;;;;;1892067;28;7172;-70
2021/10/24 19:44:54;;;;;;;;;;;;;;;;;;1889992;28;7256;-70
2021/10/24 19:45:51;;;;;;;;;;;;;;;;;;1887761;28;7041;-70
2021/10/24 19:46:48;;;;;;;;;;;;;;;;;;1892945;28;7100;-71
2021/10/24 19:47:45;;;;;;;;;;;;;;;;;;1891125;28;7137;-71
2021/10/24 19:48:42;;;;;;;;;;;;;;;;;;1892363;28;7017;-72
2021/10/24 19:49:39;;;;;;;;;;;;;;;;;;1890287;28;8051;-71
2021/10/24 19:50:36;;;;;;;;;;;;;;;;;;1889342;28;7128;-71
2021/10/24 19:51:34;;;;;;;;;;;;;;;;;;1892671;28;7084;-72
2021/10/24 19:52:31;;;;;;;;;;;;;;;;;;1889173;28;7082;-78
2021/10/24 19:53:28;;;;;;;;;;;;;;;;;;1891534;28;70069;-78
2021/10/24 19:54:27;;;;;;;;;;;;;;;;;;1879454;28;11065;-77
2021/10/24 19:55:27;;;;;;;;;;;;;;;;;;1885960;28;13055;-78
2021/10/24 19:56:28;;;;;;;;;;;;;;;;;;1880413;28;13111;-77
2021/10/24 19:58:05;;;;;;;;;;;;;;;;;;1896729;28;12866;-76
2021/10/24 19:59:04;;;;;;;;;;;;;;;;;;1883888;28;13124;-76
2021/10/24 20:00:02;;;;;;;;;;;;;;;;;;1876242;28;13139;-76
2021/10/24 20:01:00;;;;;;;;;;;;;;;;;;1885386;28;14111;-74
2021/10/24 20:01:57;;;;;;;;;;;;;;;;;;1887097;28;8690;-75
2021/10/24 20:02:53;;;;;;;;;;;;;;;;;;1886463;28;7001;-76
2021/10/24 20:03:52;;;;;;;;;;;;;;;;;;1888917;28;7017;-74
2021/10/24 20:04:49;;;;;;;;;;;;;;;;;;1888267;28;7013;-75
2021/10/24 20:05:46;;;;;;;;;;;;;;;;;;1889019;28;8641;-76
2021/10/24 20:06:43;;;;;;;;;;;;;;;;;;1895417;28;7090;-76
2021/10/24 20:07:40;;;;;;;;;;;;;;;;;;1896183;28;7018;-76
2021/10/24 20:08:38;;;;;;;;;;;;;;;;;;1896517;28;7099;-75
2021/10/24 20:09:35;;;;;;;;;;;;;;;;;;1896461;28;7389;-77
2021/10/24 20:10:32;;;;;;;;;;;;;;;;;;1889024;28;7018;-76
2021/10/24 20:11:29;;;;;;;;;;;;;;;;;;1889061;28;8143;-75
2021/10/24 20:12:26;;;;;;;;;;;;;;;;;;1881475;28;7113;-77
2021/10/24 20:13:23;;;;;;;;;;;;;;;;;;1889330;28;9277;-77
2021/10/24 20:14:20;;;;;;;;;;;;;;;;;;1901907;28;7017;-77
2021/10/24 20:23:18;;;;;;;;;;;;;;;;;;1917459;28;6803;-74
2021/10/24 20:24:16;;;;;;;;;;;;;;;;;;1909878;28;7092;-75
2021/10/24 20:25:13;;;;;;;;;;;;;;;;;;1909175;28;7041;-76
2021/10/24 20:26:11;;;;;;;;;;;;;;;;;;1911180;28;7116;-76
2021/10/24 20:27:09;;;;;;;;;;;;;;;;;;1907706;28;7005;-75
2021/10/24 20:28:06;;;;;;;;;;;;;;;;;;1910599;28;7010;-75
2021/10/24 20:29:04;;;;;;;;;;;;;;;;;;1907060;28;7005;-76
2021/10/24 20:30:02;;;;;;;;;;;;;;;;;;1902695;28;7005;-76
2021/10/24 20:30:59;;;;;;;;;;;;;;;;;;1905834;28;7021;-76
2021/10/24 20:31:57;;;;;;;;;;;;;;;;;;1915948;28;7005;-76
2021/10/24 20:32:55;;;;;;;;;;;;;;;;;;1914091;28;7120;-74
2021/10/24 20:33:54;;;;;;;;;;;;;;;;;;1907780;28;7045;-74
2021/10/24 20:34:54;;;;;;;;;;;;;;;;;;1911233;28;7360;-75
2021/10/24 20:35:52;;;;;;;;;;;;;;;;;;1914906;28;7340;-76
2021/10/24 20:36:52;;;;;;;;;;;;;;;;;;1908077;28;8031;-76
2021/10/24 20:37:49;;;;;;;;;;;;;;;;;;1915635;28;7041;-74
2021/10/24 20:38:49;;;;;;;;;;;;;;;;;;1911391;28;7112;-75
2021/10/24 20:39:47;;;;;;;;;;;;;;;;;;1910019;28;7062;-75
2021/10/24 20:40:44;;;;;;;;;;;;;;;;;;1905672;28;7093;-75
2021/10/24 20:41:42;;;;;;;;;;;;;;;;;;1908167;28;7029;-76
2021/10/24 20:42:40;;;;;;;;;;;;;;;;;;1907865;28;7093;-75
2021/10/24 20:43:38;;;;;;;;;;;;;;;;;;1909902;28;7006;-75
2021/10/24 20:44:36;;;;;;;;;;;;;;;;;;1908841;28;7045;-77
2021/10/24 20:45:33;;;;;;;;;;;;;;;;;;1916245;28;7029;-75
2021/10/24 20:46:32;;;;;;;;;;;;;;;;;;1911884;28;8418;-75
2021/10/24 20:47:32;;;;;;;;;;;;;;;;;;1923611;28;7165;-74
2021/10/24 20:48:30;;;;;;;;;;;;;;;;;;1922793;28;7025;-76
2021/10/24 20:49:28;;;;;;;;;;;;;;;;;;1912055;28;7038;-76
2021/10/24 20:50:26;;;;;;;;;;;;;;;;;;1911104;28;7037;-75
2021/10/24 20:51:23;;;;;;;;;;;;;;;;;;1908211;28;7002;-76
2021/10/24 20:52:21;;;;;;;;;;;;;;;;;;1908410;28;7017;-76
2021/10/24 20:53:18;;;;;;;;;;;;;;;;;;1915620;28;7045;-76
2021/10/24 20:54:16;;;;;;;;;;;;;;;;;;1915143;28;8046;-76
2021/10/24 20:55:13;;;;;;;;;;;;;;;;;;1910121;28;7041;-76
2021/10/24 20:56:10;;;;;;;;;;;;;;;;;;1909429;28;7219;-75
2021/10/24 20:57:08;;;;;;;;;;;;;;;;;;1910590;28;7006;-77
2021/10/24 20:58:06;;;;;;;;;;;;;;;;;;1909206;28;7096;-75
2021/10/24 20:59:03;;;;;;;;;;;;;;;;;;1903983;28;7311;-76
2021/10/24 21:00:01;;;;;;;;;;;;;;;;;;1915668;28;8032;-75
2021/10/24 21:00:58;;;;;;;;;;;;;;;;;;1915952;28;8114;-76
2021/10/24 21:01:57;;;;;;;;;;;;;;;;;;1907160;28;7096;-76
2021/10/24 21:02:55;;;;;;;;;;;;;;;;;;1917395;28;7050;-76
2021/10/24 21:03:52;;;;;;;;;;;;;;;;;;1915896;28;7010;-75
2021/10/24 21:04:50;;;;;;;;;;;;;;;;;;1917912;28;7005;-74
2021/10/24 21:05:47;;;;;;;;;;;;;;;;;;1908116;28;7017;-75
2021/10/24 21:06:45;;;;;;;;;;;;;;;;;;1908515;28;7001;-76
2021/10/24 21:07:43;;;;;;;;;;;;;;;;;;1908570;28;7332;-76
2021/10/24 21:08:40;;;;;;;;;;;;;;;;;;1909199;28;7025;-74
2021/10/24 21:09:38;;;;;;;;;;;;;;;;;;1922116;28;7042;-74
2021/10/24 21:10:37;;;;;;;;;;;;;;;;;;1928224;28;7017;-74
2021/10/24 21:11:35;;;;;;;;;;;;;;;;;;1896983;28;12638;-75
2021/10/24 21:12:33;;;;;;;;;;;;;;;;;;1885492;28;7255;-75
2021/10/24 21:13:31;;;;;;;;;;;;;;;;;;1884470;28;8080;-75
2021/10/24 21:14:28;;;;;;;;;;;;;;;;;;1882826;28;7018;-75
2021/10/24 21:15:26;;;;;;;;;;;;;;;;;;1887842;28;7029;-75
2021/10/24 21:16:24;;;;;;;;;;;;;;;;;;1886061;28;7033;-75
2021/10/24 21:17:21;;;;;;;;;;;;;;;;;;1885954;28;8059;-75
2021/10/24 21:18:19;;;;;;;;;;;;;;;;;;1887735;28;7042;-75
2021/10/24 21:19:16;;;;;;;;;;;;;;;;;;1887076;28;7009;-75
2021/10/24 21:20:14;;;;;;;;;;;;;;;;;;1886747;28;7096;-74
2021/10/24 21:21:11;;;;;;;;;;;;;;;;;;1889223;28;7022;-75
2021/10/24 21:22:09;;;;;;;;;;;;;;;;;;1886342;28;7013;-74
2021/10/24 21:23:07;;;;;;;;;;;;;;;;;;1896142;28;7023;-74
2021/10/24 21:24:04;;;;;;;;;;;;;;;;;;1890872;28;7046;-75
2021/10/24 21:25:03;;;;;;;;;;;;;;;;;;1891307;28;7092;-74
2021/10/24 21:26:01;;;;;;;;;;;;;;;;;;1896509;28;8174;-74
2021/10/24 21:26:58;;;;;;;;;;;;;;;;;;1890078;28;7010;-74
2021/10/24 21:27:56;;;;;;;;;;;;;;;;;;1893164;28;7017;-74
2021/10/24 21:28:54;;;;;;;;;;;;;;;;;;1890335;28;7100;-73
2021/10/24 21:29:51;;;;;;;;;;;;;;;;;;1886936;28;7305;-74
2021/10/24 21:30:51;;;;;;;;;;;;;;;;;;1890238;28;7045;-75
2021/10/24 21:31:48;;;;;;;;;;;;;;;;;;1880193;28;7208;-74
2021/10/24 21:32:46;;;;;;;;;;;;;;;;;;1883931;28;7113;-75
2021/10/24 21:33:43;;;;;;;;;;;;;;;;;;1894828;28;8103;-76
2021/10/24 21:34:40;;;;;;;;;;;;;;;;;;1885494;28;7014;-75
2021/10/24 21:35:38;;;;;;;;;;;;;;;;;;1888596;28;7006;-76
2021/10/24 21:36:35;;;;;;;;;;;;;;;;;;1880498;28;7096;-77
2021/10/24 21:37:34;;;;;;;;;;;;;;;;;;1879636;28;7017;-77
2021/10/24 21:38:31;;;;;;;;;;;;;;;;;;1889019;28;7047;-76
2021/10/24 21:39:30;;;;;;;;;;;;;;;;;;1890134;28;7010;-76
2021/10/24 21:51:44;;;;;;;;;;;;;;;;;;1913763;28;7438;-64
2021/10/24 21:52:42;;;;;;;;;;;;;;;;;;1904133;28;7092;-64
2021/10/24 21:53:40;;;;;;;;;;;;;;;;;;1910973;28;7006;-65
2021/10/24 21:54:37;;;;;;;;;;;;;;;;;;1907334;28;7025;-64
2021/10/24 21:55:35;;;;;;;;;;;;;;;;;;1908422;28;7009;-63
2021/10/24 21:56:32;;;;;;;;;;;;;;;;;;1911652;28;7101;-63
2021/10/24 21:57:30;;;;;;;;;;;;;;;;;;1911839;28;7108;-65
2021/10/24 21:58:27;;;;;;;;;;;;;;;;;;1912251;28;7013;-64
2021/10/24 21:59:25;;;;;;;;;;;;;;;;;;1910733;28;7005;-63
2021/10/24 22:00:22;;;;;;;;;;;;;;;;;;1910061;28;7025;-66
2021/10/24 22:01:20;;;;;;;;;;;;;;;;;;1911531;28;7033;-63
2021/10/24 22:02:17;;;;;;;;;;;;;;;;;;1904798;28;7009;-65
2021/10/24 22:03:16;;;;;;;;;;;;;;;;;;1911587;28;7029;-65
2021/10/24 22:04:13;;;;;;;;;;;;;;;;;;1902982;28;7010;-65
2021/10/24 22:05:11;;;;;;;;;;;;;;;;;;1910274;28;8046;-64
2021/10/24 22:06:10;;;;;;;;;;;;;;;;;;1910199;28;7021;-64
2021/10/24 22:07:08;;;;;;;;;;;;;;;;;;1905458;28;8107;-64
2021/10/24 22:08:05;;;;;;;;;;;;;;;;;;1910998;28;7331;-65
2021/10/24 22:09:22;;;;;;;;;;;;;;;;;;1904475;28;7069;-64
2021/10/24 22:10:20;;;;;;;;;;;;;;;;;;1904431;28;7005;-65
2021/10/24 22:11:17;;;;;;;;;;;;;;;;;;1909922;28;7092;-65
2021/10/24 22:12:15;;;;;;;;;;;;;;;;;;1911626;28;7045;-64
2021/10/24 22:13:12;;;;;;;;;;;;;;;;;;1911317;28;7030;-65
2021/10/24 22:14:10;;;;;;;;;;;;;;;;;;1912039;28;7145;-66
2021/10/24 22:15:09;;;;;;;;;;;;;;;;;;1907667;28;7128;-65
2021/10/24 22:16:06;;;;;;;;;;;;;;;;;;1903831;28;8345;-64
2021/10/24 22:17:04;;;;;;;;;;;;;;;;;;1908656;28;7096;-64
2021/10/24 22:18:01;;;;;;;;;;;;;;;;;;1905586;28;7320;-66
2021/10/24 22:18:59;;;;;;;;;;;;;;;;;;1902968;28;8059;-64
2021/10/24 22:19:57;;;;;;;;;;;;;;;;;;1908837;28;7010;-65
2021/10/24 22:20:54;;;;;;;;;;;;;;;;;;1905909;28;7053;-67
2021/10/24 22:21:52;;;;;;;;;;;;;;;;;;1906524;28;7096;-62
2021/10/24 22:22:50;;;;;;;;;;;;;;;;;;1902526;28;8107;-64
2021/10/24 22:23:47;;;;;;;;;;;;;;;;;;1903759;28;7013;-65
2021/10/24 22:24:45;;;;;;;;;;;;;;;;;;1903059;28;8116;-65
2021/10/24 22:25:42;;;;;;;;;;;;;;;;;;1904086;28;7043;-64
2021/10/24 22:26:40;;;;;;;;;;;;;;;;;;1904006;28;7045;-65
2021/10/24 22:27:37;;;;;;;;;;;;;;;;;;1913752;28;7013;-65
2021/10/24 22:28:34;;;;;;;;;;;;;;;;;;1910714;28;8110;-65
2021/10/24 22:29:33;;;;;;;;;;;;;;;;;;1912987;28;7129;-66
2021/10/24 22:30:31;;;;;;;;;;;;;;;;;;1909374;28;7020;-66
2021/10/24 22:31:35;;;;;;;;;;;;;;;;;;1903468;28;7092;-63
2021/10/24 22:32:32;;;;;;;;;;;;;;;;;;1904546;28;7046;-65
2021/10/24 22:33:30;;;;;;;;;;;;;;;;;;1903330;28;7014;-65
2021/10/24 22:34:27;;;;;;;;;;;;;;;;;;1905589;28;7010;-63
2021/10/24 22:35:25;;;;;;;;;;;;;;;;;;1911139;28;7009;-64
2021/10/24 22:36:22;;;;;;;;;;;;;;;;;;1911988;28;7117;-65
2021/10/24 22:37:20;;;;;;;;;;;;;;;;;;1904867;28;7010;-63
2021/10/24 22:38:17;;;;;;;;;;;;;;;;;;1902827;28;7014;-64
2021/10/24 22:39:15;;;;;;;;;;;;;;;;;;1906123;28;7005;-65
2021/10/24 22:40:12;;;;;;;;;;;;;;;;;;1903265;28;7092;-65
2021/10/24 22:41:12;;;;;;;;;;;;;;;;;;1904399;28;7136;-64
2021/10/24 22:42:10;;;;;;;;;;;;;;;;;;1903375;28;7260;-64
2021/10/24 22:43:07;;;;;;;;;;;;;;;;;;1904449;28;7005;-63
2021/10/24 22:44:05;;;;;;;;;;;;;;;;;;1908685;28;7025;-63
2021/10/24 22:45:03;;;;;;;;;;;;;;;;;;1905130;28;7092;-65
2021/10/24 22:46:01;;;;;;;;;;;;;;;;;;1906999;28;7085;-63
2021/10/24 22:46:59;;;;;;;;;;;;;;;;;;1903278;28;7046;-64
2021/10/24 22:47:56;;;;;;;;;;;;;;;;;;1904197;28;7100;-63
2021/10/24 22:48:53;;;;;;;;;;;;;;;;;;1906032;28;7140;-64
2021/10/24 22:49:51;;;;;;;;;;;;;;;;;;1905642;28;7005;-63
2021/10/24 22:50:48;;;;;;;;;;;;;;;;;;1901662;28;7006;-64
2021/10/24 22:51:46;;;;;;;;;;;;;;;;;;1904599;28;7258;-67
2021/10/24 22:52:43;;;;;;;;;;;;;;;;;;1903851;28;7013;-63
2021/10/24 22:53:41;;;;;;;;;;;;;;;;;;1902367;28;7006;-63
2021/10/24 22:54:39;;;;;;;;;;;;;;;;;;1906644;28;7037;-65
2021/10/24 22:55:37;;;;;;;;;;;;;;;;;;1903409;28;7001;-64
2021/10/24 22:56:34;;;;;;;;;;;;;;;;;;1904009;28;7336;-64
2021/10/24 22:57:33;;;;;;;;;;;;;;;;;;1903310;28;7005;-64
2021/10/24 22:58:31;;;;;;;;;;;;;;;;;;1903404;28;7014;-63
2021/10/24 22:59:28;;;;;;;;;;;;;;;;;;1903223;28;7038;-64
2021/10/24 23:00:25;;;;;;;;;;;;;;;;;;1903661;28;8068;-64
2021/10/24 23:01:24;;;;;;;;;;;;;;;;;;1903581;28;7042;-64
2021/10/24 23:02:22;;;;;;;;;;;;;;;;;;1903004;28;7050;-64
2021/10/24 23:03:20;;;;;;;;;;;;;;;;;;1902942;28;7101;-64
2021/10/24 23:04:18;;;;;;;;;;;;;;;;;;1899994;28;7088;-63
2021/10/24 23:05:15;;;;;;;;;;;;;;;;;;1901949;28;7050;-64
2021/10/24 23:06:13;;;;;;;;;;;;;;;;;;1905415;28;7009;-62
2021/10/24 23:07:11;;;;;;;;;;;;;;;;;;1907551;28;7017;-65
2021/10/24 23:08:08;;;;;;;;;;;;;;;;;;1899284;28;7092;-64
2021/10/24 23:09:06;;;;;;;;;;;;;;;;;;1898575;28;7006;-65
2021/10/24 23:10:04;;;;;;;;;;;;;;;;;;1898415;28;8143;-65
2021/10/24 23:11:02;;;;;;;;;;;;;;;;;;1901061;28;7092;-64
2021/10/24 23:11:59;;;;;;;;;;;;;;;;;;1900605;28;7077;-66
2021/10/24 23:12:57;;;;;;;;;;;;;;;;;;1898629;28;7009;-64
2021/10/24 23:13:55;;;;;;;;;;;;;;;;;;1900932;28;7021;-64
2021/10/24 23:14:52;;;;;;;;;;;;;;;;;;1907139;28;7042;-65
2021/10/24 23:15:50;;;;;;;;;;;;;;;;;;1907528;28;7013;-65
2021/10/24 23:16:48;;;;;;;;;;;;;;;;;;1898872;28;7026;-63
2021/10/24 23:17:45;;;;;;;;;;;;;;;;;;1898686;28;7006;-63
2021/10/24 23:18:43;;;;;;;;;;;;;;;;;;1903093;28;7057;-65
2021/10/24 23:19:40;;;;;;;;;;;;;;;;;;1906159;28;7037;-63
2021/10/24 23:20:37;;;;;;;;;;;;;;;;;;1902610;28;7256;-65
2021/10/24 23:21:35;;;;;;;;;;;;;;;;;;1897943;28;8010;-62
2021/10/24 23:22:32;;;;;;;;;;;;;;;;;;1897289;28;8046;-63
2021/10/24 23:23:30;;;;;;;;;;;;;;;;;;1909327;28;8023;-67
2021/10/24 23:24:27;;;;;;;;;;;;;;;;;;1911125;28;7308;-65
2021/10/24 23:25:24;;;;;;;;;;;;;;;;;;1905972;28;7041;-65
2021/10/24 23:26:22;;;;;;;;;;;;;;;;;;1901884;28;7026;-62
2021/10/24 23:27:19;;;;;;;;;;;;;;;;;;1898429;28;7021;-65
2021/10/24 23:28:17;;;;;;;;;;;;;;;;;;1901032;28;7017;-64
2021/10/24 23:29:14;;;;;;;;;;;;;;;;;;1897971;28;7042;-65
2021/10/24 23:30:12;;;;;;;;;;;;;;;;;;1907552;28;7006;-66
2021/10/24 23:31:09;;;;;;;;;;;;;;;;;;1905959;28;7029;-65
2021/10/24 23:32:06;;;;;;;;;;;;;;;;;;1898258;28;7088;-66
2021/10/24 23:33:04;;;;;;;;;;;;;;;;;;1899863;28;7038;-65
2021/10/24 23:34:01;;;;;;;;;;;;;;;;;;1900291;28;7050;-63
2021/10/24 23:34:59;;;;;;;;;;;;;;;;;;1903390;28;7013;-64
2021/10/24 23:35:56;;;;;;;;;;;;;;;;;;1898873;28;7009;-65
2021/10/24 23:36:53;;;;;;;;;;;;;;;;;;1899649;28;7092;-66
2021/10/24 23:37:51;;;;;;;;;;;;;;;;;;1901712;28;7009;-64
2021/10/24 23:38:48;;;;;;;;;;;;;;;;;;1904401;28;7335;-66
2021/10/24 23:39:47;;;;;;;;;;;;;;;;;;1898322;28;7113;-66
2021/10/24 23:40:44;;;;;;;;;;;;;;;;;;1901647;28;7009;-66
2021/10/24 23:41:41;;;;;;;;;;;;;;;;;;1904949;28;7014;-66
2021/10/24 23:42:39;;;;;;;;;;;;;;;;;;1903639;28;7040;-66
2021/10/24 23:43:37;;;;;;;;;;;;;;;;;;1898443;28;7049;-63
2021/10/24 23:44:35;;;;;;;;;;;;;;;;;;1899109;28;7013;-66
2021/10/24 23:45:33;;;;;;;;;;;;;;;;;;1904625;28;7021;-63
2021/10/24 23:46:31;;;;;;;;;;;;;;;;;;1904807;28;7096;-64
2021/10/24 23:47:28;;;;;;;;;;;;;;;;;;1907298;28;7010;-64
2021/10/24 23:48:26;;;;;;;;;;;;;;;;;;1905509;28;7104;-65
2021/10/24 23:49:25;;;;;;;;;;;;;;;;;;1905282;28;7017;-64
2021/10/24 23:50:23;;;;;;;;;;;;;;;;;;1898472;28;7005;-64
2021/10/24 23:51:20;;;;;;;;;;;;;;;;;;1898696;28;7316;-66
2021/10/24 23:52:18;;;;;;;;;;;;;;;;;;1898736;28;7387;-64
2021/10/24 23:53:15;;;;;;;;;;;;;;;;;;1905321;28;7033;-66
2021/10/24 23:54:12;;;;;;;;;;;;;;;;;;1902889;28;7041;-65
2021/10/24 23:55:10;;;;;;;;;;;;;;;;;;1898441;28;7092;-63
2021/10/24 23:56:07;;;;;;;;;;;;;;;;;;1902256;28;8123;-64
2021/10/24 23:57:05;;;;;;;;;;;;;;;;;;1905391;28;7005;-64
2021/10/24 23:58:02;;;;;;;;;;;;;;;;;;1899999;28;7034;-64
2021/10/24 23:58:59;;;;;;;;;;;;;;;;;;1899043;28;7042;-63
2021/10/24 23:59:57;;;;;;;;;;;;;;;;;;1903818;28;7105;-65
